Time;durP1;ratioP1;P1;durP2;ratioP2;P2;SDS_P1;SDS_P2;PMS_P1;PMS_P2;Temp;Humidity;BMP_temperature;BMP_pressure;BME280_temperature;BME280_humidity;BME280_pressure;Samples;Min_cycle;Max_cycle;Signal;HPM_P1;HPM_P2
2022/03/01 00:00:17;;;;;;;;;;;;;;;2.48;100.00;102847.84;5011018;28;19981;-73
2022/03/01 00:02:43;;;;;;;;;;;;;;;2.55;100.00;102839.25;4999859;28;19925;-74
2022/03/01 00:05:08;;;;;;;;;;;;;;;2.54;100.00;102852.34;5005322;28;19944;-73
2022/03/01 00:07:34;;;;;;;;;;;;;;;2.55;100.00;102851.50;4998242;28;19922;-73
2022/03/01 00:09:59;;;;;;;;;;;;;;;2.56;100.00;102853.25;5006871;28;19940;-72
2022/03/01 00:12:24;;;;;;;;;;;;;;;2.56;100.00;102845.38;5006370;28;20522;-74
2022/03/01 00:14:49;;;;;;;;;;;;;;;2.44;100.00;102846.00;5006014;28;20371;-74
2022/03/01 00:17:14;;;;;;;;;;;;;;;2.45;100.00;102860.91;5003129;28;19917;-71
2022/03/01 00:19:40;;;;;;;;;;;;;;;2.40;100.00;102854.66;5002895;28;20425;-72
2022/03/01 00:22:05;;;;;;;;;;;;;;;2.30;100.00;102857.91;5011925;28;19925;-72
2022/03/01 00:24:30;;;;;;;;;;;;;;;2.23;100.00;102858.63;5003545;28;20421;-72
2022/03/01 00:26:55;;;;;;;;;;;;;;;2.19;100.00;102862.03;4996320;28;19921;-71
2022/03/01 00:29:21;;;;;;;;;;;;;;;2.15;100.00;102869.78;4999152;28;20343;-71
2022/03/01 00:31:46;;;;;;;;;;;;;;;2.11;100.00;102873.19;5014713;28;20370;-72
2022/03/01 00:34:11;;;;;;;;;;;;;;;2.08;100.00;102871.38;5004268;28;19961;-72
2022/03/01 00:36:36;;;;;;;;;;;;;;;2.05;100.00;102870.44;5006431;28;20012;-74
2022/03/01 00:39:05;;;;;;;;;;;;;;;2.01;100.00;102869.47;5004925;28;19918;-71
2022/03/01 00:41:30;;;;;;;;;;;;;;;1.97;100.00;102871.97;5007633;28;19921;-72
2022/03/01 00:43:56;;;;;;;;;;;;;;;1.93;100.00;102865.78;4998301;28;20394;-72
2022/03/01 00:46:23;;;;;;;;;;;;;;;1.89;100.00;102877.00;5004545;28;19925;-72
2022/03/01 00:48:48;;;;;;;;;;;;;;;1.85;100.00;102872.56;5005275;28;19917;-72
2022/03/01 00:51:13;;;;;;;;;;;;;;;1.79;100.00;102875.03;5004432;28;20359;-72
2022/03/01 00:53:39;;;;;;;;;;;;;;;1.75;100.00;102881.00;4997474;28;19953;-72
2022/03/01 00:56:04;;;;;;;;;;;;;;;1.72;100.00;102886.19;5008105;28;19925;-72
2022/03/01 00:58:30;;;;;;;;;;;;;;;1.69;100.00;102886.09;5003787;28;19945;-72
2022/03/01 01:00:55;;;;;;;;;;;;;;;1.65;100.00;102881.66;5003765;28;19921;-72
2022/03/01 01:03:20;;;;;;;;;;;;;;;1.61;100.00;102886.78;5009041;28;19926;-72
2022/03/01 01:05:45;;;;;;;;;;;;;;;1.58;100.00;102884.94;5000866;28;19944;-72
2022/03/01 01:08:10;;;;;;;;;;;;;;;1.58;100.00;102893.69;5006108;28;20016;-72
2022/03/01 01:10:36;;;;;;;;;;;;;;;1.57;100.00;102885.78;5002320;28;19917;-72
2022/03/01 01:13:01;;;;;;;;;;;;;;;1.58;100.00;102891.94;5006477;28;19991;-72
2022/03/01 01:15:26;;;;;;;;;;;;;;;1.58;100.00;102905.03;5002878;28;20335;-72
2022/03/01 01:17:51;;;;;;;;;;;;;;;1.54;100.00;102904.91;4999886;28;19957;-72
2022/03/01 01:20:17;;;;;;;;;;;;;;;1.53;100.00;102907.50;4995464;28;19940;-72
2022/03/01 01:22:42;;;;;;;;;;;;;;;1.53;100.00;102910.09;4995412;28;19952;-72
2022/03/01 01:25:12;;;;;;;;;;;;;;;1.56;100.00;102905.84;5010519;28;19968;-73
2022/03/01 01:27:38;;;;;;;;;;;;;;;1.61;100.00;102919.06;4995342;28;19929;-73
2022/03/01 01:30:05;;;;;;;;;;;;;;;1.62;100.00;102910.38;4995761;28;20438;-73
2022/03/01 01:32:30;;;;;;;;;;;;;;;1.68;100.00;102922.72;4995800;28;19921;-72
2022/03/01 01:34:55;;;;;;;;;;;;;;;1.72;100.00;102916.75;4993957;28;19960;-73
2022/03/01 01:37:20;;;;;;;;;;;;;;;1.75;100.00;102922.91;4995155;28;19918;-72
2022/03/01 01:39:46;;;;;;;;;;;;;;;1.78;100.00;102923.00;4995072;28;20422;-73
2022/03/01 01:42:11;;;;;;;;;;;;;;;1.79;100.00;102916.94;4995096;28;19921;-73
2022/03/01 01:44:36;;;;;;;;;;;;;;;1.79;100.00;102916.94;4994980;28;19945;-73
2022/03/01 01:47:01;;;;;;;;;;;;;;;1.82;100.00;102919.63;5010002;28;20012;-72
2022/03/01 01:52:36;;;;;;;;;;;;;;;1.98;100.00;102918.28;5008102;28;19975;-73
2022/03/01 01:55:04;;;;;;;;;;;;;;;2.03;100.00;102917.56;5014514;28;19929;-73
2022/03/01 01:57:29;;;;;;;;;;;;;;;2.03;100.00;102914.06;5013212;28;19917;-73
2022/03/01 01:59:55;;;;;;;;;;;;;;;2.04;100.00;102911.47;5014407;28;20336;-73
2022/03/01 02:02:22;;;;;;;;;;;;;;;2.17;100.00;102900.44;5014346;28;19967;-72
2022/03/01 02:04:47;;;;;;;;;;;;;;;2.14;100.00;102899.47;5014290;28;19918;-73
2022/03/01 02:07:13;;;;;;;;;;;;;;;2.13;100.00;102902.97;5013795;28;19925;-73
2022/03/01 02:09:39;;;;;;;;;;;;;;;2.30;100.00;102897.25;5014362;28;19918;-73
2022/03/01 02:12:04;;;;;;;;;;;;;;;2.37;100.00;102893.94;5014265;28;19921;-72
2022/03/01 02:14:30;;;;;;;;;;;;;;;2.58;100.00;102886.56;5014457;28;19917;-73
2022/03/01 02:16:55;;;;;;;;;;;;;;;2.53;100.00;102876.78;5014152;28;20011;-73
2022/03/01 02:19:20;;;;;;;;;;;;;;;2.53;100.00;102876.78;5014180;28;19917;-73
2022/03/01 02:21:46;;;;;;;;;;;;;;;2.59;100.00;102863.81;5014070;28;19924;-72
2022/03/01 02:24:11;;;;;;;;;;;;;;;2.55;100.00;102862.84;5014426;28;20386;-73
2022/03/01 02:26:37;;;;;;;;;;;;;;;2.62;100.00;102853.38;5014012;28;19962;-72
2022/03/01 02:29:02;;;;;;;;;;;;;;;2.69;100.00;102848.34;5013985;28;20287;-73
2022/03/01 02:31:27;;;;;;;;;;;;;;;2.83;100.00;102848.59;5014321;28;19940;-73
2022/03/01 02:33:52;;;;;;;;;;;;;;;2.80;100.00;102843.28;5014030;28;19917;-73
2022/03/01 02:36:17;;;;;;;;;;;;;;;2.83;100.00;102838.09;5013860;28;19921;-73
2022/03/01 02:38:43;;;;;;;;;;;;;;;2.92;100.00;102827.78;5013839;28;19918;-72
2022/03/01 02:41:08;;;;;;;;;;;;;;;2.97;100.00;102829.66;5013883;28;19918;-73
2022/03/01 02:43:33;;;;;;;;;;;;;;;2.95;100.00;102820.88;5012687;28;20306;-73
2022/03/01 02:45:58;;;;;;;;;;;;;;;2.94;100.00;102826.09;5013829;28;19924;-73
2022/03/01 02:48:23;;;;;;;;;;;;;;;2.85;100.00;102816.28;5012439;28;19976;-73
2022/03/01 02:50:49;;;;;;;;;;;;;;;2.85;100.00;102816.28;5012569;28;19983;-73
2022/03/01 02:53:15;;;;;;;;;;;;;;;2.95;100.00;102818.25;4996408;28;19968;-73
2022/03/01 02:55:40;;;;;;;;;;;;;;;2.97;100.00;102819.16;5012533;28;20440;-73
2022/03/01 02:58:05;;;;;;;;;;;;;;;2.99;100.00;102814.81;5014105;28;19957;-73
2022/03/01 03:00:30;;;;;;;;;;;;;;;3.05;100.00;102812.34;5013700;28;20302;-72
2022/03/01 03:02:55;;;;;;;;;;;;;;;2.95;100.00;102804.22;5013679;28;19944;-73
2022/03/01 03:05:21;;;;;;;;;;;;;;;2.99;100.00;102806.06;5012239;28;20012;-73
2022/03/01 03:07:46;;;;;;;;;;;;;;;2.95;100.00;102813.00;5013531;28;20293;-73
2022/03/01 03:10:11;;;;;;;;;;;;;;;2.92;100.00;102805.06;5013455;28;19917;-73
2022/03/01 03:12:37;;;;;;;;;;;;;;;2.93;100.00;102805.97;5013589;28;19925;-73
2022/03/01 03:15:03;;;;;;;;;;;;;;;2.90;100.00;102801.53;5012311;28;20028;-72
2022/03/01 03:17:28;;;;;;;;;;;;;;;2.86;100.00;102809.31;5014877;28;19924;-72
2022/03/01 03:19:53;;;;;;;;;;;;;;;2.86;100.00;102811.94;5016092;28;19924;-72
2022/03/01 03:22:19;;;;;;;;;;;;;;;2.87;100.00;102809.34;5018040;28;19918;-72
2022/03/01 03:24:44;;;;;;;;;;;;;;;2.91;100.00;102805.94;5017189;28;20305;-72
2022/03/01 03:30:23;;;;;;;;;;;;;;;2.84;100.00;102790.91;5017379;28;19933;-72
2022/03/01 03:35:17;;;;;;;;;;;;;;;2.99;100.00;102804.31;5032904;28;19925;-68
2022/03/01 03:37:42;;;;;;;;;;;;;;;2.99;100.00;102796.44;5016438;28;20342;-68
2022/03/01 03:40:10;;;;;;;;;;;;;;;3.08;100.00;102804.50;5017149;28;19917;-68
2022/03/01 03:42:36;;;;;;;;;;;;;;;3.10;100.00;102800.16;5016753;28;20378;-68
2022/03/01 03:45:02;;;;;;;;;;;;;;;3.07;100.00;102800.09;5016796;28;19989;-68
2022/03/01 03:47:27;;;;;;;;;;;;;;;3.07;100.00;102797.47;4999134;28;19924;-68
2022/03/01 03:49:53;;;;;;;;;;;;;;;3.14;100.00;102796.75;5016852;28;19924;-68
2022/03/01 03:52:18;;;;;;;;;;;;;;;3.28;100.00;102796.13;5017255;28;20000;-68
2022/03/01 03:54:43;;;;;;;;;;;;;;;3.38;100.00;102795.41;4998819;28;20288;-68
2022/03/01 03:57:08;;;;;;;;;;;;;;;3.31;100.00;102797.03;5016563;28;19972;-68
2022/03/01 03:59:37;;;;;;;;;;;;;;;3.48;100.00;102786.84;5016998;28;19957;-68
2022/03/01 04:02:03;;;;;;;;;;;;;;;3.37;100.00;102781.41;5016533;28;19917;-68
2022/03/01 04:04:28;;;;;;;;;;;;;;;3.37;100.00;102780.53;5016645;28;20365;-68
2022/03/01 04:06:53;;;;;;;;;;;;;;;3.36;100.00;102776.13;5016523;28;19960;-68
2022/03/01 04:09:19;;;;;;;;;;;;;;;3.45;100.00;102777.16;4998433;28;19953;-68
2022/03/01 04:11:44;;;;;;;;;;;;;;;3.47;100.00;102780.69;4998545;28;19924;-68
2022/03/01 04:14:09;;;;;;;;;;;;;;;3.53;100.00;102785.19;5016300;28;19956;-68
2022/03/01 04:16:34;;;;;;;;;;;;;;;3.53;100.00;102777.31;5016345;28;19925;-68
2022/03/01 04:19:00;;;;;;;;;;;;;;;3.65;100.00;102765.25;5016297;28;19925;-68
2022/03/01 04:21:25;;;;;;;;;;;;;;;3.72;100.00;102774.13;4998989;28;19918;-68
2022/03/01 04:23:51;;;;;;;;;;;;;;;3.63;100.00;102771.31;5016057;28;19921;-68
2022/03/01 04:26:16;;;;;;;;;;;;;;;3.60;100.00;102769.53;4998759;28;19918;-68
2022/03/01 04:28:41;;;;;;;;;;;;;;;3.63;100.00;102771.31;5015270;28;19921;-68
2022/03/01 04:31:07;;;;;;;;;;;;;;;3.65;100.00;102767.88;5015689;28;19918;-68
2022/03/01 04:33:32;;;;;;;;;;;;;;;3.67;100.00;102773.16;5015523;28;19936;-68
2022/03/01 04:36:02;;;;;;;;;;;;;;;3.81;100.00;102763.75;5015086;28;19952;-68
2022/03/01 04:38:28;;;;;;;;;;;;;;;3.78;100.00;102767.19;5031050;28;20410;-68
2022/03/01 04:40:54;;;;;;;;;;;;;;;3.80;100.00;102770.72;5016478;28;20298;-68
2022/03/01 04:43:19;;;;;;;;;;;;;;;3.84;100.00;102769.03;5015699;28;19925;-68
2022/03/01 04:45:44;;;;;;;;;;;;;;;3.92;100.00;102767.41;5015814;28;19917;-68
2022/03/01 04:48:09;;;;;;;;;;;;;;;3.92;100.00;102767.41;5015907;28;19924;-68
2022/03/01 04:50:35;;;;;;;;;;;;;;;3.90;100.00;102756.88;5030899;28;19924;-68
2022/03/01 04:53:00;;;;;;;;;;;;;;;3.89;100.00;102754.22;5030799;28;19940;-68
2022/03/01 04:55:25;;;;;;;;;;;;;;;3.90;100.00;102750.72;5014283;28;19918;-68
2022/03/01 04:57:50;;;;;;;;;;;;;;;3.93;100.00;102750.78;5015585;28;20000;-68
2022/03/01 05:00:16;;;;;;;;;;;;;;;3.95;100.00;102764.81;5014300;28;19917;-68
2022/03/01 05:02:42;;;;;;;;;;;;;;;4.03;100.00;102760.56;5015275;28;19921;-68
2022/03/01 05:05:10;;;;;;;;;;;;;;;4.06;100.00;102752.72;5015533;28;19922;-68
2022/03/01 05:07:36;;;;;;;;;;;;;;;3.90;100.00;102746.38;5015864;28;20248;-68
2022/03/01 05:10:01;;;;;;;;;;;;;;;4.12;100.00;102747.53;5015706;28;20036;-68
2022/03/01 05:12:26;;;;;;;;;;;;;;;4.03;100.00;102740.44;5013658;28;20032;-68
2022/03/01 05:14:52;;;;;;;;;;;;;;;4.07;100.00;102749.22;5030406;28;20409;-68
2022/03/01 05:17:17;;;;;;;;;;;;;;;3.98;100.00;102751.72;5020663;28;20404;-68
2022/03/01 05:19:42;;;;;;;;;;;;;;;4.00;100.00;102748.25;5033762;28;19924;-68
2022/03/01 05:22:07;;;;;;;;;;;;;;;3.96;100.00;102756.06;5033620;28;19924;-68
2022/03/01 05:24:32;;;;;;;;;;;;;;;4.02;100.00;102745.63;5031254;28;19940;-68
2022/03/01 05:26:58;;;;;;;;;;;;;;;3.99;100.00;102749.13;5017719;28;20028;-67
2022/03/01 05:29:23;;;;;;;;;;;;;;;3.98;100.00;102759.63;5039360;28;20286;-69
2022/03/01 05:31:48;;;;;;;;;;;;;;;3.98;100.00;102744.72;5031562;28;19917;-68
2022/03/01 05:34:13;;;;;;;;;;;;;;;3.94;100.00;102744.69;5024081;28;19921;-68
2022/03/01 05:36:39;;;;;;;;;;;;;;;3.91;100.00;102740.25;5030208;28;19968;-68
2022/03/01 05:39:04;;;;;;;;;;;;;;;3.92;100.00;102742.03;5034512;28;19917;-68
2022/03/01 05:41:29;;;;;;;;;;;;;;;3.91;100.00;102752.47;5034011;28;19917;-68
2022/03/01 05:43:54;;;;;;;;;;;;;;;3.90;100.00;102756.00;5021285;28;19953;-68
2022/03/01 05:46:19;;;;;;;;;;;;;;;3.95;100.00;102749.94;5015997;28;20000;-68
2022/03/01 05:48:45;;;;;;;;;;;;;;;4.04;100.00;102750.06;5024095;28;20282;-68
2022/03/01 05:51:10;;;;;;;;;;;;;;;4.03;100.00;102750.94;5017320;28;20091;-68
2022/03/01 05:53:36;;;;;;;;;;;;;;;3.99;100.00;102758.75;5025054;28;19923;-68
2022/03/01 05:56:01;;;;;;;;;;;;;;;3.96;100.00;102756.06;5024809;28;19927;-68
2022/03/01 05:58:26;;;;;;;;;;;;;;;3.93;100.00;102750.78;5039998;28;19917;-70
2022/03/01 06:00:51;;;;;;;;;;;;;;;3.97;100.00;102753.47;5020609;28;20011;-68
2022/03/01 06:03:17;;;;;;;;;;;;;;;3.91;100.00;102760.38;5022806;28;19917;-70
2022/03/01 06:05:42;;;;;;;;;;;;;;;4.01;100.00;102764.91;5019996;28;19918;-69
2022/03/01 06:08:07;;;;;;;;;;;;;;;4.01;100.00;102764.91;5019366;28;19918;-68
2022/03/01 06:10:32;;;;;;;;;;;;;;;3.97;100.00;102765.75;5023338;28;19917;-69
2022/03/01 06:12:58;;;;;;;;;;;;;;;4.01;100.00;102767.53;5024582;28;19921;-69
2022/03/01 06:15:23;;;;;;;;;;;;;;;4.05;100.00;102758.84;5037428;28;19917;-69
2022/03/01 06:17:48;;;;;;;;;;;;;;;4.11;100.00;102753.69;5022104;28;20008;-69
2022/03/01 06:20:17;;;;;;;;;;;;;;;4.08;100.00;102761.53;5023415;28;20346;-71
2022/03/01 06:22:42;;;;;;;;;;;;;;;4.10;100.00;102755.41;5028182;28;19925;-72
2022/03/01 06:25:08;;;;;;;;;;;;;;;4.13;100.00;102757.19;5017320;28;20370;-69
2022/03/01 06:27:37;;;;;;;;;;;;;;;4.09;100.00;102758.91;5027454;28;19917;-70
2022/03/01 06:30:06;;;;;;;;;;;;;;;4.10;100.00;102749.25;5028637;28;19925;-70
2022/03/01 06:32:31;;;;;;;;;;;;;;;4.15;100.00;102755.47;5024883;28;20350;-70
2022/03/01 06:34:57;;;;;;;;;;;;;;;4.19;100.00;102757.31;5026098;28;20008;-70
2022/03/01 06:37:22;;;;;;;;;;;;;;;4.22;100.00;102749.44;5029350;28;19975;-71
2022/03/01 06:39:50;;;;;;;;;;;;;;;4.19;100.00;102757.31;5027491;28;20020;-69
2022/03/01 06:42:15;;;;;;;;;;;;;;;4.17;100.00;102767.81;5023065;28;19992;-69
2022/03/01 06:44:41;;;;;;;;;;;;;;;4.22;100.00;102762.59;5022100;28;20286;-69
2022/03/01 06:47:06;;;;;;;;;;;;;;;4.20;100.00;102766.94;5022681;28;19928;-69
2022/03/01 06:49:31;;;;;;;;;;;;;;;4.20;100.00;102770.47;5034802;28;20008;-70
2022/03/01 06:51:57;;;;;;;;;;;;;;;4.28;100.00;102788.97;5047774;28;19956;-70
2022/03/01 06:54:22;;;;;;;;;;;;;;;4.27;100.00;102785.44;5019090;28;19924;-70
2022/03/01 06:56:47;;;;;;;;;;;;;;;4.24;100.00;102785.41;5017715;28;19918;-69
2022/03/01 06:59:13;;;;;;;;;;;;;;;4.39;100.00;102796.16;5017519;28;19918;-69
2022/03/01 07:01:39;;;;;;;;;;;;;;;4.33;100.00;102795.19;5020107;28;19921;-69
2022/03/01 07:04:04;;;;;;;;;;;;;;;4.34;100.00;102789.06;5021220;28;20358;-69
2022/03/01 07:06:29;;;;;;;;;;;;;;;4.35;100.00;102778.56;5031749;28;20390;-69
2022/03/01 07:08:54;;;;;;;;;;;;;;;4.31;100.00;102789.00;5026766;28;20016;-70
2022/03/01 07:11:22;;;;;;;;;;;;;;;4.41;100.00;102788.28;5031144;28;19928;-70
2022/03/01 07:13:47;;;;;;;;;;;;;;;4.39;100.00;102790.91;5037505;28;19963;-69
2022/03/01 07:16:12;;;;;;;;;;;;;;;4.43;100.00;102786.53;5035234;28;19917;-69
2022/03/01 07:18:37;;;;;;;;;;;;;;;4.47;100.00;102788.38;5036836;28;20378;-68
2022/03/01 07:21:03;;;;;;;;;;;;;;;4.45;100.00;102790.09;5035028;28;19917;-69
2022/03/01 07:23:28;;;;;;;;;;;;;;;4.42;100.00;102801.47;5036615;28;19917;-69
2022/03/01 07:25:53;;;;;;;;;;;;;;;4.48;100.00;102806.81;5035337;28;19917;-69
2022/03/01 07:28:18;;;;;;;;;;;;;;;4.57;100.00;102798.13;5036177;28;20033;-69
2022/03/01 07:30:43;;;;;;;;;;;;;;;4.53;100.00;102802.50;5036586;28;19918;-69
2022/03/01 07:33:09;;;;;;;;;;;;;;;4.61;100.00;102797.31;5036078;28;19917;-69
2022/03/01 07:35:34;;;;;;;;;;;;;;;4.72;100.00;102798.34;5037008;28;20325;-69
2022/03/01 07:37:59;;;;;;;;;;;;;;;4.76;100.00;102808.03;5038471;28;19924;-70
2022/03/01 07:40:26;;;;;;;;;;;;;;;4.90;100.00;102811.69;5035434;28;19975;-70
2022/03/01 07:42:51;;;;;;;;;;;;;;;4.99;100.00;102811.81;5034888;28;19968;-70
2022/03/01 07:45:17;;;;;;;;;;;;;;;4.98;100.00;102820.56;5034661;28;20381;-70
2022/03/01 07:47:42;;;;;;;;;;;;;;;5.05;100.00;102822.44;5034050;28;19924;-70
2022/03/01 07:50:08;;;;;;;;;;;;;;;4.83;100.00;102819.50;5034152;28;20275;-70
2022/03/01 07:52:34;;;;;;;;;;;;;;;4.80;100.00;102825.63;5034265;28;19917;-70
2022/03/01 07:54:59;;;;;;;;;;;;;;;5.03;100.00;102825.91;5035949;28;19917;-70
2022/03/01 07:57:24;;;;;;;;;;;;;;;5.00;100.00;102826.75;5036012;28;19960;-70
2022/03/01 07:59:50;;;;;;;;;;;;;;;5.22;100.00;102819.97;5034285;28;19917;-70
2022/03/01 08:02:15;;;;;;;;;;;;;;;5.16;100.00;102817.25;5035368;28;20293;-70
2022/03/01 08:04:41;;;;;;;;;;;;;;;5.19;100.00;102814.66;5026005;28;20023;-70
2022/03/01 08:07:09;;;;;;;;;;;;;;;5.42;100.00;102818.44;5037601;28;20378;-72
2022/03/01 08:09:35;;;;;;;;;;;;;;;5.64;100.00;102821.25;5039538;28;20370;-70
2022/03/01 08:12:02;;;;;;;;;;;;;;;5.22;100.00;102833.13;5030596;28;19921;-70
2022/03/01 08:14:29;;;;;;;;;;;;;;;5.12;100.00;102834.78;5022171;28;19931;-70
2022/03/01 08:16:55;;;;;;;;;;;;;;;4.96;100.00;102837.22;5032257;28;19921;-70
2022/03/01 08:19:20;;;;;;;;;;;;;;;4.99;100.00;102838.16;5034179;28;20395;-70
2022/03/01 08:21:45;;;;;;;;;;;;;;;4.89;100.00;102841.53;5026466;28;19944;-70
2022/03/01 08:24:10;;;;;;;;;;;;;;;4.90;100.00;102837.16;5035788;28;19921;-71
2022/03/01 08:26:36;;;;;;;;;;;;;;;5.08;100.00;102843.53;5034478;28;20404;-70
2022/03/01 08:29:01;;;;;;;;;;;;;;;5.07;100.00;102841.78;5034987;28;20362;-71
2022/03/01 08:31:26;;;;;;;;;;;;;;;4.99;100.00;102843.44;5024112;28;20301;-70
2022/03/01 08:33:51;;;;;;;;;;;;;;;5.04;100.00;102848.75;5023087;28;20019;-70
2022/03/01 08:36:16;;;;;;;;;;;;;;;5.02;100.00;102846.09;5023234;28;19971;-69
2022/03/01 08:38:42;;;;;;;;;;;;;;;5.05;100.00;102838.22;5022957;28;19921;-70
2022/03/01 08:41:07;;;;;;;;;;;;;;;5.11;100.00;102843.56;5039370;28;19929;-71
2022/03/01 08:43:32;;;;;;;;;;;;;;;5.13;100.00;102849.72;5014834;28;20286;-77
2022/03/01 08:45:58;;;;;;;;;;;;;;;5.22;100.00;102849.81;5027335;28;20441;-72
2022/03/01 08:48:25;;;;;;;;;;;;;;;5.50;100.00;102851.88;5028073;28;19951;-70
2022/03/01 08:50:50;;;;;;;;;;;;;;;5.54;100.00;102844.91;5035386;28;19927;-69
2022/03/01 08:53:16;;;;;;;;;;;;;;;5.60;100.00;102855.50;5022288;28;19921;-71
2022/03/01 08:55:41;;;;;;;;;;;;;;;5.72;100.00;102855.63;5028782;28;19975;-70
2022/03/01 08:58:06;;;;;;;;;;;;;;;5.70;100.00;102866.16;5023621;28;19925;-70
2022/03/01 09:00:32;;;;;;;;;;;;;;;5.82;100.00;102868.03;5024708;28;19983;-71
2022/03/01 09:02:58;;;;;;;;;;;;;;;5.41;100.00;102861.44;5021396;28;20369;-72
2022/03/01 09:05:23;;;;;;;;;;;;;;;5.50;100.00;102870.31;5021816;28;19921;-69
2022/03/01 09:07:49;;;;;;;;;;;;;;;5.45;100.00;102873.81;5021262;28;19921;-71
2022/03/01 09:10:14;;;;;;;;;;;;;;;5.35;100.00;102866.66;5024764;28;20040;-69
2022/03/01 09:12:40;;;;;;;;;;;;;;;5.55;100.00;102875.63;5027566;28;19928;-70
2022/03/01 09:15:05;;;;;;;;;;;;;;;5.59;100.00;102873.06;5022284;28;20390;-70
2022/03/01 09:17:30;;;;;;;;;;;;;;;5.69;100.00;102869.63;5023697;28;19975;-72
2022/03/01 09:19:56;;;;;;;;;;;;;;;5.81;100.00;102869.78;5020222;28;20303;-72
2022/03/01 09:22:21;;;;;;;;;;;;;;;5.82;100.00;102868.03;5038892;28;20012;-69
2022/03/01 09:24:46;;;;;;;;;;;;;;;6.09;100.00;102865.63;5023277;28;20035;-71
2022/03/01 09:27:12;;;;;;;;;;;;;;;6.09;100.00;102871.81;5024774;28;19921;-71
2022/03/01 09:29:37;;;;;;;;;;;;;;;6.11;100.00;102872.69;5036176;28;19982;-70
2022/03/01 09:32:03;;;;;;;;;;;;;;;6.14;100.00;102883.28;5050704;28;19917;-72
2022/03/01 09:34:28;;;;;;;;;;;;;;;6.10;100.00;102889.38;5031043;28;20397;-73
2022/03/01 09:36:54;;;;;;;;;;;;;;;5.93;100.00;102891.00;5031581;28;19963;-69
2022/03/01 09:39:19;;;;;;;;;;;;;;;5.86;100.00;102902.34;5023804;28;20320;-69
2022/03/01 09:41:45;;;;;;;;;;;;;;;5.77;100.00;102904.88;5023576;28;19921;-69
2022/03/01 09:44:10;;;;;;;;;;;;;;;5.70;100.00;102907.44;5017677;28;19933;-69
2022/03/01 09:46:35;;;;;;;;;;;;;;;5.69;100.00;102908.28;5025815;28;19932;-71
2022/03/01 09:49:01;;;;;;;;;;;;;;;5.61;100.00;102918.75;5028951;28;19925;-70
2022/03/01 09:51:26;;;;;;;;;;;;;;;5.50;100.00;102915.13;5023156;28;20279;-73
2022/03/01 09:53:52;;;;;;;;;;;;;;;5.41;100.00;102925.56;5029883;28;19987;-70
2022/03/01 09:56:18;;;;;;;;;;;;;;;5.34;100.00;102917.59;5022617;28;20378;-70
2022/03/01 09:58:45;;;;;;;;;;;;;;;5.31;100.00;102915.78;5031723;28;19921;-69
2022/03/01 10:01:10;;;;;;;;;;;;;;;5.14;100.00;102932.28;5023508;28;20327;-70
2022/03/01 10:03:36;;;;;;;;;;;;;;;5.05;100.00;102930.41;5029106;28;20191;-71
2022/03/01 10:06:05;;;;;;;;;;;;;;;4.91;100.00;102931.97;5032479;28;19932;-70
2022/03/01 10:08:44;;;;;;;;;;;;;;;4.81;100.00;102930.06;5033071;28;19928;-69
2022/03/01 10:11:09;;;;;;;;;;;;;;;4.66;100.00;102929.84;5028041;28;19944;-69
2022/03/01 10:13:36;;;;;;;;;;;;;;;4.73;100.00;102929.97;5012897;28;20374;-68
2022/03/01 10:16:03;;;;;;;;;;;;;;;4.76;100.00;102933.50;5020066;28;20018;-70
2022/03/01 10:18:30;;;;;;;;;;;;;;;4.84;100.00;102927.47;5026517;28;20274;-70
2022/03/01 10:21:00;;;;;;;;;;;;;;;4.77;100.00;102935.25;5034429;28;19976;-69
2022/03/01 10:23:25;;;;;;;;;;;;;;;4.72;100.00;102941.34;5022399;28;19924;-69
2022/03/01 10:25:51;;;;;;;;;;;;;;;4.77;100.00;102937.91;5029466;28;19921;-69
2022/03/01 10:28:16;;;;;;;;;;;;;;;4.63;100.00;102940.34;5028660;28;19918;-70
2022/03/01 10:30:41;;;;;;;;;;;;;;;4.59;100.00;102930.59;5023493;28;19921;-70
2022/03/01 10:33:11;;;;;;;;;;;;;;;4.66;100.00;102935.13;5023287;28;19976;-69
2022/03/01 10:35:37;;;;;;;;;;;;;;;4.68;100.00;102941.25;5028902;28;19976;-69
2022/03/01 10:38:03;;;;;;;;;;;;;;;4.92;100.00;102952.16;5030261;28;20416;-71
2022/03/01 10:40:29;;;;;;;;;;;;;;;4.80;100.00;102945.81;5045200;28;19917;-70
2022/03/01 10:43:03;;;;;;;;;;;;;;;4.79;100.00;102946.72;5032302;28;19921;-69
2022/03/01 10:45:32;;;;;;;;;;;;;;;4.95;100.00;102946.06;5027240;28;20220;-70
2022/03/01 10:47:57;;;;;;;;;;;;;;;5.07;100.00;102949.75;5027007;28;20285;-69
2022/03/01 10:50:23;;;;;;;;;;;;;;;5.00;100.00;102945.25;5028272;28;19971;-68
2022/03/01 10:52:49;;;;;;;;;;;;;;;4.98;100.00;102952.22;5028570;28;20016;-69
2022/03/01 10:55:22;;;;;;;;;;;;;;;4.94;100.00;102966.22;5040914;28;19964;-70
2022/03/01 10:57:55;;;;;;;;;;;;;;;4.74;100.00;102962.44;5029708;28;19949;-72
2022/03/01 11:00:21;;;;;;;;;;;;;;;4.90;100.00;102969.66;5029366;28;20367;-69
2022/03/01 11:02:46;;;;;;;;;;;;;;;4.68;100.00;102963.22;5023643;28;19930;-69
2022/03/01 11:05:11;;;;;;;;;;;;;;;4.71;100.00;102963.25;5024259;28;19921;-68
2022/03/01 11:07:37;;;;;;;;;;;;;;;4.91;100.00;102966.19;5031021;28;19932;-68
2022/03/01 11:10:05;;;;;;;;;;;;;;;5.14;100.00;102956.84;5027031;28;20416;-70
2022/03/01 11:12:30;;;;;;;;;;;;;;;5.31;100.00;102960.56;5040860;28;20023;-69
2022/03/01 11:14:58;;;;;;;;;;;;;;;5.48;100.00;102964.31;5020891;28;19925;-70
2022/03/01 11:17:26;;;;;;;;;;;;;;;5.68;100.00;102969.81;5042118;28;19921;-70
2022/03/01 11:20:07;;;;;;;;;;;;;;;5.73;100.00;102973.38;5027024;28;20019;-68
2022/03/01 11:22:41;;;;;;;;;;;;;;;6.33;100.00;102970.47;5024293;28;20008;-71
2022/03/01 11:25:07;;;;;;;;;;;;;;;7.31;100.00;102967.59;5023393;28;20309;-70
2022/03/01 11:27:42;;;;;;;;;;;;;;;8.04;100.00;102968.69;5027414;28;19921;-68
2022/03/01 11:30:08;;;;;;;;;;;;;;;9.19;100.00;102966.88;5018551;28;19929;-68
2022/03/01 11:32:37;;;;;;;;;;;;;;;10.97;100.00;102955.03;5025872;28;19952;-69
2022/03/01 11:35:03;;;;;;;;;;;;;;;10.18;100.00;102923.03;5024437;28;20385;-70
2022/03/01 11:37:28;;;;;;;;;;;;;;;10.27;100.00;102902.56;5024764;28;19928;-70
2022/03/01 11:39:58;;;;;;;;;;;;;;;9.95;100.00;102895.72;5033575;28;19928;-69
2022/03/01 11:42:24;;;;;;;;;;;;;;;9.71;100.00;102879.94;5026353;28;20359;-69
2022/03/01 11:44:50;;;;;;;;;;;;;;;10.11;100.00;102877.03;5029733;28;20016;-69
2022/03/01 11:47:29;;;;;;;;;;;;;;;10.42;100.00;102875.88;5030806;28;20051;-71
2022/03/01 11:49:54;;;;;;;;;;;;;;;9.97;100.00;102856.78;5027625;28;19922;-70
2022/03/01 11:52:21;;;;;;;;;;;;;;;9.57;100.00;102869.44;5026561;28;19928;-70
2022/03/01 11:54:48;;;;;;;;;;;;;;;7.84;100.00;102864.63;5027305;28;19921;-69
2022/03/01 11:57:14;;;;;;;;;;;;;;;8.02;100.00;102871.69;5025349;28;19976;-69
2022/03/01 11:59:39;;;;;;;;;;;;;;;8.03;100.00;102861.09;5022388;28;20061;-73
2022/03/01 12:02:08;;;;;;;;;;;;;;;8.66;100.00;102863.69;5026352;28;19921;-70
2022/03/01 12:04:42;;;;;;;;;;;;;;;8.48;100.00;102869.03;5021488;28;19928;-70
2022/03/01 12:07:08;;;;;;;;;;;;;;;8.25;100.00;102870.81;5032028;28;20333;-69
2022/03/01 12:09:35;;;;;;;;;;;;;;;7.77;100.00;102868.13;5022519;28;19925;-70
2022/03/01 12:12:04;;;;;;;;;;;;;;;8.08;100.00;102867.28;5027583;28;20388;-71
2022/03/01 12:14:30;;;;;;;;;;;;;;;7.89;100.00;102867.28;5027395;28;19971;-70
2022/03/01 12:16:55;;;;;;;;;;;;;;;7.84;100.00;102864.63;5027840;28;19957;-72
2022/03/01 12:19:22;;;;;;;;;;;;;;;7.87;100.00;102850.50;5025594;28;19967;-75
2022/03/01 12:21:49;;;;;;;;;;;;;;;8.24;100.00;102855.81;5025055;28;19929;-71
2022/03/01 12:24:15;;;;;;;;;;;;;;;8.22;100.00;102865.50;5020593;28;20290;-70
2022/03/01 12:26:41;;;;;;;;;;;;;;;8.46;100.00;102862.84;5019782;28;19928;-71
2022/03/01 12:29:08;;;;;;;;;;;;;;;8.50;100.00;102858.41;5023388;28;19925;-70
2022/03/01 12:31:34;;;;;;;;;;;;;;;8.82;100.00;102853.94;5021890;28;19957;-70
2022/03/01 12:34:01;;;;;;;;;;;;;;;8.82;100.00;102851.28;5027815;28;19976;-71
2022/03/01 12:36:26;;;;;;;;;;;;;;;8.44;100.00;102858.44;5023948;28;20016;-70